首页
METAR-TAF:

METAR-TAF

机场 :

奧爾托國際機場

拉巴斯, 玻利维亚

纬度: 16-31S, 经度: 068-11W, 海拔: 4058米

当前天气观测

该预报发布于40分钟前的17:00 UTC
风速5节,风向西南
温度 13°C
湿度 14%
气压 1042 hPa
能见度10公里或以上

METAR: SLLP 241700Z 22005KT 9999 NSC 13/M14 Q1042

时间: 13:40 (17:40 UTC)

预报

该预报发布于7小时和40分钟前的10:00 UTC
预报有效从24日的 12点(UTC)到 25日的 12点(UTC)
风速2节,风向多变
能见度10公里或以上
成为
从 24日的 13点(UTC)到 24日的 16点(UTC)
风速10节,风向南转南东
少量云层高于1700英尺
成为
从 25日的 00点(UTC)到 25日的 03点(UTC)
风速6节,风向
成为
从 25日的 04点(UTC)到 25日的 07点(UTC)
能見度: 3000
少量云层高于200英尺
碎片雾,

TAF: SLLP 241000Z 2412/2512 VRB02KT 9999 NSC TX15/2419Z TNM04/2511Z BECMG 2413/2416 15010KT FEW017 BECMG 2500/2503 08006KT BECMG 2504/2507 3000E BCFG FEW002

超过4000个机场的气象观测和天气预报(METAR&TAF报告)。

可查询的气象台以黄色和红色小点在地图上表示。

将鼠标移到小点上方,可查看气象台名称。

然后点击查看天气观测和预报。

如需切换地图:点击带黑十字的绿色按钮放大地图;点击带横线的绿色按钮缩小地图;或者点击绿色箭头查看邻近地区的地图。


METAR-TAF: